createdAt,value
2019-05-07T00:00:35.970Z,12.20
2019-05-07T00:03:05.345Z,12.03
2019-05-07T00:05:33.815Z,11.33
2019-05-07T00:08:02.973Z,12.80
2019-05-07T00:10:33.165Z,13.48
2019-05-07T00:13:03.802Z,9.80
2019-05-07T00:15:32.937Z,13.20
2019-05-07T00:18:03.176Z,8.75
2019-05-07T00:20:32.694Z,10.70
2019-05-07T00:23:02.914Z,10.40
2019-05-07T00:25:32.770Z,13.60
2019-05-07T00:28:02.758Z,10.25
2019-05-07T00:30:33.243Z,12.98
2019-05-07T00:33:02.768Z,10.88
2019-05-07T00:35:38.905Z,12.37
2019-05-07T00:38:09.368Z,11.33
2019-05-07T00:40:45.207Z,11.30
2019-05-07T00:43:15.459Z,13.78
2019-05-07T00:45:46.553Z,10.32
2019-05-07T00:48:15.079Z,9.28
2019-05-07T00:50:45.201Z,10.38
2019-05-07T00:53:13.719Z,15.55
2019-05-07T00:55:42.383Z,13.55
2019-05-07T00:58:13.175Z,12.58
2019-05-07T01:00:43.646Z,14.55
2019-05-07T01:03:12.904Z,10.48
2019-05-07T01:05:43.354Z,13.22
2019-05-07T01:08:13.160Z,12.05
2019-05-07T01:10:42.153Z,10.58
2019-05-07T01:13:12.585Z,14.45
2019-05-07T01:15:42.914Z,14.28
2019-05-07T01:18:12.387Z,13.88
2019-05-07T01:20:47.047Z,11.25
2019-05-07T01:23:17.019Z,13.08
2019-05-07T01:25:45.564Z,10.78
2019-05-07T01:28:14.011Z,12.03
2019-05-07T01:30:43.342Z,10.50
2019-05-07T01:33:17.333Z,13.08
2019-05-07T01:35:47.453Z,10.95
2019-05-07T01:38:17.564Z,11.25
2019-05-07T01:40:46.207Z,14.03
2019-05-07T01:43:14.786Z,14.23
2019-05-07T01:45:49.087Z,11.03
2019-05-07T01:48:16.473Z,10.78
2019-05-07T01:50:44.919Z,11.43
2019-05-07T01:53:13.522Z,12.90
2019-05-07T01:55:42.774Z,12.47
2019-05-07T01:58:13.149Z,12.17
2019-05-07T02:00:42.669Z,14.00
2019-05-07T02:03:29.387Z,14.87
2019-05-07T02:06:05.349Z,12.63
2019-05-07T02:08:38.187Z,12.23
2019-05-07T02:11:08.837Z,12.50
2019-05-07T02:13:37.425Z,16.42
2019-05-07T02:16:05.956Z,12.43
2019-05-07T02:18:34.556Z,13.48
2019-05-07T02:21:03.320Z,14.38
2019-05-07T02:23:34.547Z,14.23
2019-05-07T02:26:03.685Z,13.78
2019-05-07T02:28:33.050Z,13.60
2019-05-07T02:31:04.063Z,10.05
2019-05-07T02:33:34.906Z,13.18
2019-05-07T02:36:02.988Z,17.02
2019-05-07T02:38:45.363Z,14.30
2019-05-07T02:41:18.466Z,11.60
2019-05-07T02:43:48.368Z,12.28
2019-05-07T02:46:27.535Z,13.03
2019-05-07T02:48:56.577Z,11.05
2019-05-07T02:51:35.158Z,19.23
2019-05-07T02:54:13.392Z,12.88
2019-05-07T02:56:43.221Z,13.28
2019-05-07T02:59:13.675Z,15.45
2019-05-07T03:01:43.358Z,14.78
2019-05-07T03:04:13.014Z,16.07
2019-05-07T03:06:44.224Z,16.27
2019-05-07T03:09:14.488Z,15.03
2019-05-07T03:11:43.440Z,11.97
2019-05-07T03:14:14.060Z,14.80
2019-05-07T03:16:48.474Z,14.33
2019-05-07T03:19:13.593Z,15.58
2019-05-07T03:21:55.053Z,19.92
2019-05-07T03:24:26.103Z,15.95
2019-05-07T03:26:54.562Z,17.82
2019-05-07T03:29:24.867Z,15.43
2019-05-07T03:32:15.743Z,16.37
2019-05-07T03:34:57.190Z,13.18
2019-05-07T03:37:24.151Z,15.03
2019-05-07T03:39:53.803Z,17.48
2019-05-07T03:42:23.618Z,14.75
2019-05-07T03:45:03.387Z,17.52
2019-05-07T03:47:33.200Z,19.80
2019-05-07T03:50:03.378Z,16.75
2019-05-07T03:52:33.597Z,14.30
2019-05-07T03:55:03.673Z,15.75
2019-05-07T03:57:33.590Z,15.72
2019-05-07T04:00:04.341Z,18.60
2019-05-07T04:02:33.430Z,15.75
2019-05-07T04:05:04.239Z,18.48
2019-05-07T04:07:33.911Z,17.15
2019-05-07T04:10:10.196Z,20.85
2019-05-07T04:12:38.950Z,18.20
2019-05-07T04:15:07.549Z,18.48
2019-05-07T04:17:36.104Z,23.80
2019-05-07T04:20:07.034Z,16.12
2019-05-07T04:22:35.650Z,18.95
2019-05-07T04:25:26.028Z,16.02
2019-05-07T04:28:03.692Z,17.27
2019-05-07T04:30:33.249Z,13.90
2019-05-07T04:33:03.727Z,19.30
2019-05-07T04:35:45.906Z,15.43
2019-05-07T04:38:14.767Z,19.37
2019-05-07T04:40:43.702Z,16.82
2019-05-07T04:43:13.564Z,17.48
2019-05-07T04:45:43.429Z,19.50
2019-05-07T04:48:14.277Z,20.65
2019-05-07T04:50:47.654Z,19.00
2019-05-07T04:53:15.207Z,16.17
2019-05-07T04:55:43.658Z,19.17
2019-05-07T04:58:14.416Z,17.65
2019-05-07T05:00:43.384Z,16.30
2019-05-07T05:03:17.232Z,16.42
2019-05-07T05:05:47.378Z,17.17
2019-05-07T05:08:15.860Z,15.90
2019-05-07T05:10:46.038Z,13.88
2019-05-07T05:13:14.660Z,15.93
2019-05-07T05:15:43.359Z,17.70
2019-05-07T05:18:12.890Z,19.52
2019-05-07T05:20:46.506Z,17.52
2019-05-07T05:23:16.641Z,20.10
2019-05-07T05:25:45.479Z,20.43
2019-05-07T05:28:14.876Z,18.85
2019-05-07T05:30:49.627Z,18.25
2019-05-07T05:33:18.115Z,25.15
2019-05-07T05:35:46.580Z,23.32
2019-05-07T05:38:15.020Z,16.23
2019-05-07T05:40:43.513Z,21.43
2019-05-07T05:43:16.073Z,20.03
2019-05-07T05:45:53.001Z,20.67
2019-05-07T05:48:22.596Z,18.17
2019-05-07T05:51:11.922Z,23.75
2019-05-07T05:53:55.663Z,20.37
2019-05-07T05:56:28.379Z,18.90
2019-05-07T05:59:02.827Z,22.48
2019-05-07T06:01:33.641Z,17.32
2019-05-07T06:04:03.730Z,17.50
2019-05-07T06:06:42.718Z,19.30
2019-05-07T06:09:13.858Z,18.50
2019-05-07T06:11:59.192Z,21.60
2019-05-07T06:14:35.579Z,18.30
2019-05-07T06:17:12.977Z,15.35
2019-05-07T06:19:59.547Z,21.68
2019-05-07T06:22:44.505Z,16.15
2019-05-07T06:25:15.289Z,18.10
2019-05-07T06:27:43.914Z,17.12
2019-05-07T06:30:12.786Z,17.13
2019-05-07T06:32:43.098Z,17.15
2019-05-07T06:35:12.507Z,17.57
2019-05-07T06:37:42.931Z,19.10
2019-05-07T06:40:24.892Z,17.37
2019-05-07T06:42:56.033Z,15.23
2019-05-07T06:45:29.146Z,13.72
2019-05-07T06:47:58.396Z,17.23
2019-05-07T06:50:28.124Z,15.35
2019-05-07T06:52:57.811Z,12.23
2019-05-07T06:55:27.770Z,15.40
2019-05-07T06:57:56.283Z,16.27
2019-05-07T07:00:27.212Z,14.00
2019-05-07T07:03:17.058Z,15.80
2019-05-07T07:05:47.189Z,14.45
2019-05-07T07:08:29.522Z,15.88
2019-05-07T07:11:12.904Z,11.27
2019-05-07T07:13:43.251Z,13.18
2019-05-07T07:16:12.675Z,10.30
2019-05-07T07:18:49.519Z,10.50
2019-05-07T07:21:12.381Z,10.82
2019-05-07T07:23:42.978Z,13.32
2019-05-07T07:26:12.650Z,11.20
2019-05-07T07:28:42.916Z,11.00
2019-05-07T07:31:16.194Z,15.33
2019-05-07T07:33:46.291Z,15.68
2019-05-07T07:36:14.785Z,10.55
2019-05-07T07:38:43.256Z,12.33
2019-05-07T07:41:14.731Z,8.98
2019-05-07T07:43:43.194Z,12.05
2019-05-07T07:46:13.186Z,12.03
2019-05-07T07:48:43.544Z,15.70
2019-05-07T07:51:13.841Z,12.60
2019-05-07T07:53:44.723Z,9.20
2019-05-07T07:56:47.554Z,10.18
2019-05-07T07:59:04.660Z,9.25
2019-05-07T08:01:43.514Z,11.57
2019-05-07T08:04:12.427Z,10.78
2019-05-07T08:06:41.978Z,14.33
2019-05-07T08:09:12.983Z,8.73
2019-05-07T08:11:42.585Z,9.80
2019-05-07T08:14:12.673Z,9.75
2019-05-07T08:16:42.897Z,12.25
2019-05-07T08:19:21.724Z,11.50
2019-05-07T08:21:42.253Z,7.70
2019-05-07T08:24:12.222Z,11.22
2019-05-07T08:26:42.814Z,14.07
2019-05-07T08:29:11.912Z,11.55
2019-05-07T08:31:57.382Z,13.33
2019-05-07T08:34:27.489Z,14.85
2019-05-07T08:36:55.964Z,15.13
2019-05-07T08:39:25.096Z,12.58
2019-05-07T08:41:54.167Z,12.82
2019-05-07T08:44:27.211Z,13.43
2019-05-07T08:46:57.321Z,12.43
2019-05-07T08:49:35.662Z,17.87
2019-05-07T08:52:03.023Z,16.75
2019-05-07T08:54:32.394Z,17.07
2019-05-07T08:57:02.238Z,19.85
2019-05-07T08:59:32.052Z,16.95
2019-05-07T09:02:02.882Z,18.07
2019-05-07T09:04:32.850Z,16.65
2019-05-07T09:07:03.164Z,18.48
2019-05-07T09:09:33.103Z,26.50
2019-05-07T09:12:03.102Z,17.30
2019-05-07T09:14:32.378Z,15.15
2019-05-07T09:17:02.486Z,19.50
2019-05-07T09:19:46.887Z,20.35
2019-05-07T09:22:03.284Z,19.07
2019-05-07T09:24:33.341Z,18.90
2019-05-07T09:27:07.460Z,17.35
2019-05-07T09:29:43.610Z,17.80
2019-05-07T09:32:22.995Z,17.98
2019-05-07T09:34:58.841Z,18.75
2019-05-07T09:37:29.356Z,18.73
2019-05-07T09:39:58.175Z,21.37
2019-05-07T09:42:27.074Z,20.17
2019-05-07T09:44:55.950Z,19.15
2019-05-07T09:47:24.633Z,19.35
2019-05-07T09:50:03.997Z,20.80
2019-05-07T09:52:23.464Z,22.87
2019-05-07T09:54:52.409Z,21.65
2019-05-07T09:57:30.096Z,25.37
2019-05-07T09:59:53.080Z,19.62
2019-05-07T10:02:23.638Z,21.55
2019-05-07T10:04:53.803Z,19.45
2019-05-07T10:07:22.580Z,17.00
2019-05-07T10:09:52.335Z,19.67
2019-05-07T10:12:23.172Z,20.32
2019-05-07T10:14:52.248Z,17.42
2019-05-07T10:17:32.736Z,14.98
2019-05-07T10:20:07.265Z,18.12
2019-05-07T10:22:33.167Z,19.57
2019-05-07T10:25:02.800Z,18.57
2019-05-07T10:27:32.465Z,18.65
2019-05-07T10:30:02.588Z,18.42
2019-05-07T10:32:32.237Z,18.45
2019-05-07T10:35:02.087Z,20.08
2019-05-07T10:37:31.889Z,18.07
2019-05-07T10:40:03.042Z,20.27
2019-05-07T10:42:32.332Z,19.67
2019-05-07T10:45:08.699Z,20.48
2019-05-07T10:47:41.804Z,20.60
2019-05-07T10:50:34.935Z,18.62
2019-05-07T10:52:50.327Z,19.98
2019-05-07T10:55:18.769Z,22.42
2019-05-07T10:57:47.264Z,28.05
2019-05-07T11:00:18.286Z,22.70
2019-05-07T11:02:47.213Z,20.90
2019-05-07T11:05:16.322Z,19.73
2019-05-07T11:07:44.840Z,24.32
2019-05-07T11:10:14.137Z,23.32
2019-05-07T11:12:42.890Z,24.60
2019-05-07T11:15:12.650Z,25.27
2019-05-07T11:18:21.836Z,21.17
2019-05-07T11:20:53.379Z,20.40
2019-05-07T11:23:22.257Z,19.37
2019-05-07T11:25:52.642Z,23.27
2019-05-07T11:28:22.700Z,20.02
2019-05-07T11:30:51.504Z,21.37
2019-05-07T11:33:22.045Z,25.37
2019-05-07T11:35:52.638Z,23.27
2019-05-07T11:38:24.830Z,22.62
2019-05-07T11:40:52.069Z,20.65
2019-05-07T11:43:39.998Z,25.95
2019-05-07T11:46:10.185Z,19.80
2019-05-07T11:48:42.160Z,22.40
2019-05-07T11:51:15.264Z,23.20
2019-05-07T11:54:02.206Z,26.23
2019-05-07T11:56:32.992Z,22.90
2019-05-07T11:59:02.682Z,22.63
2019-05-07T12:01:43.488Z,21.82
2019-05-07T12:04:03.093Z,19.75
2019-05-07T12:06:32.179Z,21.02
2019-05-07T12:09:04.092Z,17.98
2019-05-07T12:11:37.165Z,18.48
2019-05-07T12:14:05.876Z,21.85
2019-05-07T12:16:34.373Z,20.27
2019-05-07T12:19:03.136Z,17.73
2019-05-07T12:21:32.170Z,19.62
2019-05-07T12:24:02.154Z,23.18
2019-05-07T12:26:33.226Z,20.25
2019-05-07T12:29:01.688Z,19.55
2019-05-07T12:31:34.312Z,21.40
2019-05-07T12:34:07.605Z,22.80
2019-05-07T12:36:38.495Z,19.75
2019-05-07T12:39:09.405Z,25.17
2019-05-07T12:41:37.948Z,24.47
2019-05-07T12:44:08.856Z,21.23
2019-05-07T12:46:39.693Z,21.93
2019-05-07T12:49:08.248Z,21.10
2019-05-07T12:51:39.906Z,21.90
2019-05-07T12:54:15.364Z,21.27
2019-05-07T12:56:44.133Z,24.90
2019-05-07T12:59:13.464Z,24.65
2019-05-07T13:02:00.043Z,21.90
2019-05-07T13:04:32.358Z,20.12
2019-05-07T13:07:13.653Z,24.45
2019-05-07T13:09:42.768Z,18.62
2019-05-07T13:12:11.660Z,22.27
2019-05-07T13:14:42.163Z,20.20
2019-05-07T13:17:12.097Z,23.12
2019-05-07T13:19:42.038Z,24.20
2019-05-07T13:22:12.415Z,23.90
2019-05-07T13:24:44.008Z,20.48
2019-05-07T13:27:12.531Z,20.15
2019-05-07T13:29:42.514Z,19.05
2019-05-07T13:32:13.863Z,17.75
2019-05-07T13:34:43.047Z,16.65
2019-05-07T13:37:17.104Z,18.27
2019-05-07T13:39:47.272Z,18.90
2019-05-07T13:42:39.014Z,18.40
2019-05-07T13:45:11.833Z,18.85
2019-05-07T13:47:40.892Z,21.33
2019-05-07T13:50:11.927Z,20.12
2019-05-07T13:52:43.262Z,21.95
2019-05-07T13:55:14.251Z,20.67
2019-05-07T13:57:43.273Z,22.70
2019-05-07T14:00:15.772Z,22.35
2019-05-07T14:02:44.997Z,21.40
2019-05-07T14:05:14.315Z,20.20
2019-05-07T14:07:45.357Z,19.73
2019-05-07T14:10:14.346Z,23.60
2019-05-07T14:12:42.973Z,23.12
2019-05-07T14:15:12.587Z,23.30
2019-05-07T14:17:41.629Z,22.58
2019-05-07T14:20:12.766Z,22.98
2019-05-07T14:22:42.595Z,21.35
2019-05-07T14:25:32.430Z,21.80
2019-05-07T14:28:02.236Z,22.87
2019-05-07T14:30:32.762Z,20.45
2019-05-07T14:33:06.085Z,21.73
2019-05-07T14:35:39.340Z,21.82
2019-05-07T14:38:13.930Z,19.70
2019-05-07T14:40:43.820Z,21.55
2019-05-07T14:43:17.007Z,18.40
2019-05-07T14:45:45.450Z,19.77
2019-05-07T14:48:13.984Z,20.08
2019-05-07T14:50:44.868Z,21.30
2019-05-07T14:53:13.823Z,22.33
2019-05-07T14:55:42.423Z,20.35
2019-05-07T14:58:12.386Z,20.75
2019-05-07T15:00:42.657Z,23.30
2019-05-07T15:03:13.534Z,21.75
2019-05-07T15:05:43.544Z,22.50
2019-05-07T15:08:14.465Z,21.73
2019-05-07T15:10:43.342Z,22.00
2019-05-07T15:13:12.725Z,22.27
2019-05-07T15:15:42.082Z,23.95
2019-05-07T15:18:16.224Z,24.00
2019-05-07T15:20:45.154Z,24.70
2019-05-07T15:23:19.588Z,22.45
2019-05-07T15:25:48.391Z,24.92
2019-05-07T15:28:17.443Z,24.52
2019-05-07T15:31:04.531Z,24.35
2019-05-07T15:33:33.120Z,25.23
2019-05-07T15:36:02.902Z,27.07
2019-05-07T15:38:32.344Z,23.47
2019-05-07T15:41:02.222Z,30.80
2019-05-07T15:43:32.376Z,26.95
2019-05-07T15:46:02.099Z,25.25
2019-05-07T15:48:32.649Z,21.62
2019-05-07T15:51:05.791Z,23.07
2019-05-07T15:56:06.739Z,22.15
2019-05-07T15:58:42.352Z,18.80
2019-05-07T16:01:09.306Z,23.15
2019-05-07T16:03:45.441Z,20.43
2019-05-07T16:06:15.634Z,19.17
2019-05-07T16:08:49.229Z,22.70
2019-05-07T16:11:17.722Z,18.85
2019-05-07T16:14:07.073Z,19.87
2019-05-07T16:16:39.250Z,21.82
2019-05-07T16:19:12.442Z,17.25
2019-05-07T16:21:42.525Z,19.33
2019-05-07T16:24:12.165Z,17.07
2019-05-07T16:26:41.906Z,17.00
2019-05-07T16:29:12.978Z,14.73
2019-05-07T16:31:41.192Z,14.03
2019-05-07T16:34:09.722Z,13.95
2019-05-07T16:36:39.383Z,14.73
2019-05-07T16:39:08.510Z,14.58
2019-05-07T16:41:38.093Z,15.70
2019-05-07T16:44:07.985Z,12.20
2019-05-07T16:46:38.786Z,14.35
2019-05-07T16:49:08.864Z,11.73
2019-05-07T16:51:38.933Z,14.35
2019-05-07T16:54:07.588Z,10.00
2019-05-07T16:56:38.804Z,9.63
2019-05-07T16:59:13.323Z,11.20
2019-05-07T17:01:43.467Z,11.15
2019-05-07T17:04:12.885Z,12.85
2019-05-07T17:06:42.621Z,9.38
2019-05-07T17:09:14.486Z,11.88
2019-05-07T17:11:43.693Z,10.43
2019-05-07T17:14:13.330Z,16.55
2019-05-07T17:16:41.881Z,13.32
2019-05-07T17:19:12.002Z,14.43
2019-05-07T17:21:43.231Z,13.80
2019-05-07T17:24:13.651Z,10.78
2019-05-07T17:26:43.487Z,11.05
2019-05-07T17:29:17.156Z,12.87
2019-05-07T17:31:47.049Z,12.07
2019-05-07T17:34:17.305Z,10.68
2019-05-07T17:36:46.243Z,12.58
2019-05-07T17:39:15.631Z,10.73
2019-05-07T17:41:44.111Z,14.10
2019-05-07T17:44:12.645Z,12.43
2019-05-07T17:46:42.872Z,12.00
2019-05-07T17:49:12.559Z,11.90
2019-05-07T17:51:42.672Z,13.35
2019-05-07T17:54:15.148Z,13.20
2019-05-07T17:56:46.130Z,12.60
2019-05-07T17:59:14.647Z,12.80
2019-05-07T18:01:50.096Z,12.45
2019-05-07T18:04:23.979Z,15.72
2019-05-07T18:06:55.563Z,14.73
2019-05-07T18:09:24.061Z,13.25
2019-05-07T18:11:52.538Z,13.83
2019-05-07T18:14:22.880Z,10.40
2019-05-07T18:16:57.502Z,13.85
2019-05-07T18:19:28.548Z,14.50
2019-05-07T18:21:57.458Z,12.87
2019-05-07T18:24:27.700Z,13.60
2019-05-07T18:26:56.188Z,12.95
2019-05-07T18:29:24.990Z,15.45
2019-05-07T18:31:57.927Z,16.60
2019-05-07T18:34:32.029Z,14.53
2019-05-07T18:39:32.476Z,16.82
2019-05-07T18:42:02.815Z,18.73
2019-05-07T18:44:36.476Z,16.55
2019-05-07T18:49:36.755Z,19.77
2019-05-07T18:52:08.442Z,16.75
2019-05-07T18:54:42.779Z,22.37
2019-05-07T18:57:11.295Z,23.27
2019-05-07T18:59:39.830Z,25.30
2019-05-07T19:02:10.164Z,21.93
2019-05-07T19:04:38.645Z,25.08
2019-05-07T19:07:13.055Z,20.52
2019-05-07T19:09:43.939Z,19.67
2019-05-07T19:12:15.353Z,21.95
2019-05-07T19:14:45.861Z,23.45
2019-05-07T19:17:15.955Z,22.05
2019-05-07T19:19:44.433Z,22.90
2019-05-07T19:22:13.067Z,24.02
2019-05-07T19:24:47.938Z,22.55
2019-05-07T19:27:15.961Z,21.57
2019-05-07T19:29:45.874Z,26.02
2019-05-07T19:32:15.802Z,24.30
2019-05-07T19:34:45.187Z,23.18
2019-05-07T19:37:13.815Z,23.77
2019-05-07T19:39:42.994Z,26.30
2019-05-07T19:42:12.170Z,28.62
2019-05-07T19:44:45.829Z,25.75
2019-05-07T19:47:17.287Z,25.87
2019-05-07T19:49:45.760Z,25.20
2019-05-07T19:52:14.363Z,23.02
2019-05-07T19:54:47.161Z,23.17
2019-05-07T19:57:15.903Z,23.87
2019-05-07T19:59:45.446Z,23.98
2019-05-07T20:02:15.770Z,26.60
2019-05-07T20:04:44.220Z,30.48
2019-05-07T20:07:12.784Z,26.42
2019-05-07T20:09:42.865Z,27.85
2019-05-07T20:12:11.366Z,28.57
2019-05-07T20:14:42.081Z,23.77
2019-05-07T20:17:12.325Z,29.80
2019-05-07T20:19:41.752Z,31.10
2019-05-07T20:22:12.790Z,25.65
2019-05-07T20:24:46.993Z,30.57
2019-05-07T20:27:16.884Z,27.55
2019-05-07T20:29:45.354Z,26.05
2019-05-07T20:32:13.849Z,36.80
2019-05-07T20:34:42.392Z,31.57
2019-05-07T20:37:12.961Z,27.83
2019-05-07T20:39:42.636Z,31.45
2019-05-07T20:42:12.799Z,29.72
2019-05-07T20:44:42.635Z,26.52
2019-05-07T20:47:12.705Z,26.25
2019-05-07T20:49:43.032Z,26.02
2019-05-07T20:52:13.067Z,30.25
2019-05-07T20:54:43.173Z,29.37
2019-05-07T20:57:16.036Z,30.02
2019-05-07T20:59:44.515Z,28.70
2019-05-07T21:02:13.026Z,28.13
2019-05-07T21:04:42.476Z,26.48
2019-05-07T21:07:11.988Z,26.75
2019-05-07T21:09:42.257Z,29.40
2019-05-07T21:12:12.867Z,30.40
2019-05-07T21:14:41.800Z,27.00
2019-05-07T21:17:11.978Z,30.23
2019-05-07T21:19:42.835Z,28.07
2019-05-07T21:22:13.068Z,23.18
2019-05-07T21:24:42.201Z,30.50
2019-05-07T21:27:12.228Z,25.48
2019-05-07T21:29:42.495Z,27.62
2019-05-07T21:32:12.392Z,26.00
2019-05-07T21:34:42.147Z,27.82
2019-05-07T21:37:12.668Z,23.67
2019-05-07T21:39:42.427Z,30.23
2019-05-07T21:42:13.964Z,26.80
2019-05-07T21:44:43.056Z,24.80
2019-05-07T21:47:12.581Z,27.27
2019-05-07T21:49:43.026Z,26.45
2019-05-07T21:52:12.700Z,25.93
2019-05-07T21:54:43.687Z,29.18
2019-05-07T21:57:16.861Z,25.65
2019-05-07T21:59:45.310Z,29.83
2019-05-07T22:02:22.056Z,28.23
2019-05-07T22:04:52.753Z,26.52
2019-05-07T22:07:22.781Z,27.40
2019-05-07T22:09:52.319Z,26.50
2019-05-07T22:12:22.636Z,31.57
2019-05-07T22:14:52.851Z,29.87
2019-05-07T22:17:21.979Z,26.80
2019-05-07T22:19:52.497Z,28.27
2019-05-07T22:22:23.987Z,30.48
2019-05-07T22:24:53.145Z,29.07
2019-05-07T22:27:42.197Z,25.77
2019-05-07T22:30:12.876Z,26.97
2019-05-07T22:32:52.823Z,25.62
2019-05-07T22:35:25.952Z,29.90
2019-05-07T22:37:54.425Z,28.30
2019-05-07T22:40:23.216Z,29.03
2019-05-07T22:42:52.581Z,26.00
2019-05-07T22:45:22.810Z,29.50
2019-05-07T22:47:52.615Z,28.35
2019-05-07T22:50:22.573Z,25.93
2019-05-07T22:52:52.553Z,24.92
2019-05-07T22:55:21.966Z,29.15
2019-05-07T22:57:56.065Z,27.05
2019-05-07T23:00:28.884Z,29.35
2019-05-07T23:02:57.445Z,27.00
2019-05-07T23:05:27.184Z,31.45
2019-05-07T23:07:55.688Z,31.27
2019-05-07T23:10:24.132Z,28.55
2019-05-07T23:12:52.811Z,33.58
2019-05-07T23:15:22.631Z,31.05
2019-05-07T23:17:52.583Z,29.60
2019-05-07T23:20:24.124Z,31.77
2019-05-07T23:22:51.995Z,31.57
2019-05-07T23:25:24.298Z,29.63
2019-05-07T23:27:52.779Z,30.05
2019-05-07T23:30:22.371Z,31.35
2019-05-07T23:32:52.768Z,30.77
2019-05-07T23:35:22.197Z,27.02
2019-05-07T23:37:52.918Z,31.07
2019-05-07T23:40:34.755Z,32.83
2019-05-07T23:43:05.182Z,30.70
2019-05-07T23:45:33.648Z,30.97
2019-05-07T23:48:02.818Z,32.20
2019-05-07T23:50:32.409Z,27.87
2019-05-07T23:53:02.376Z,30.97
2019-05-07T23:55:32.507Z,31.60
2019-05-07T23:58:03.130Z,28.30
